KPOE/POE METAR and TAF weather

Enter ICAO airport designator
Station Type Date Time Source
KPOE METAR 2020/07/15 08:58 UTC NOAA

KPOE 150858Z AUTO 18004KT 10SM SCT180 25/24 A2995 RMK AO2 SLP140 T02480236 55004


Station Type Date Time Source
KPOE Decoded METAR 2020/07/15 08:58 UTC NOAA

Fort Polk, Polk AAF Ft Polk, LA, United States (KPOE) 31-03N 093-11-38W
Jul 15, 2020 - 04:58 AM EDT / 2020.07.15 0858 UTC
Wind: from the S (180 degrees) at 5 MPH (4 KT):0
Visibility: 10 mile(s):0
Sky conditions: partly cloudy
Temperature: 76.6 F (24.8 C)
Dew Point: 74.5 F (23.6 C)
Relative Humidity: 93%
Pressure (altimeter): 29.95 in. Hg (1014 hPa)
Pressure tendency: 0.01 inches (0.4 hPa) lower than three hours ago
ob: KPOE 150858Z AUTO 18004KT 10SM SCT180 25/24 A2995 RMK AO2 SLP140 T02480236 55004
cycle: 9

Station Type Date Time Source
KPOE TAF 2020/07/15 08:21 UTC NOAA

TAF KPOE 150800Z 1508/1614 VRB06KT 9999 FEW015 QNH2995INS
BECMG 1514/1515 22010G15KT 9999 FEW015 SCT150 QNH2998INS
BECMG 1601/1602 19009KT 9999 FEW140 QNH2991INS
BECMG 1609/1610 VRB06KT 8000 BR SCT016 QNH2998INS TX34/1521Z TN24/1511Z

Example: see airport list